Time;durP1;ratioP1;P1;durP2;ratioP2;P2;SDS_P1;SDS_P2;PMS_P1;PMS_P2;Temp;Humidity;BMP_temperature;BMP_pressure;BME280_temperature;BME280_humidity;BME280_pressure;Samples;Min_cycle;Max_cycle;Signal;HPM_P1;HPM_P2
2021/07/07 00:00:08;;;;;;;;;3.00;3.00;;;;;-145.01;100.00;59511.53;5070530;27;45734;-74
2021/07/07 00:02:33;;;;;;;;;3.25;1.25;;;;;-145.01;100.00;59511.53;5070498;27;45465;-74
2021/07/07 00:04:58;;;;;;;;;2.00;2.00;;;;;-145.01;100.00;59511.53;5070964;28;45458;-74
2021/07/07 00:07:24;;;;;;;;;2.00;2.00;;;;;-145.01;100.00;59511.53;5072507;27;46314;-74
2021/07/07 00:09:49;;;;;;;;;2.50;2.00;;;;;-145.01;100.00;59511.53;5072597;28;45353;-74
2021/07/07 00:12:14;;;;;;;;;2.00;2.00;;;;;-145.01;100.00;59511.53;5070763;27;45407;-74
2021/07/07 00:14:40;;;;;;;;;2.75;2.75;;;;;-145.01;100.00;59511.53;5070678;28;45453;-74
2021/07/07 00:17:05;;;;;;;;;2.75;2.75;;;;;-145.01;100.00;59511.53;5070536;27;46809;-74
2021/07/07 00:19:30;;;;;;;;;1.50;1.50;;;;;-145.01;100.00;59511.53;5074781;28;45462;-75
2021/07/07 00:21:58;;;;;;;;;3.00;2.25;;;;;-145.01;100.00;59511.53;5072640;27;45282;-74
2021/07/07 00:24:25;;;;;;;;;3.00;1.75;;;;;-145.01;100.00;59511.53;5069493;27;45228;-74
2021/07/07 00:26:50;;;;;;;;;1.50;1.50;;;;;-145.01;100.00;59511.53;5069293;28;46169;-74
2021/07/07 00:29:16;;;;;;;;;2.00;2.00;;;;;-145.01;100.00;59511.53;5072158;27;45658;-74
2021/07/07 00:31:42;;;;;;;;;2.75;2.25;;;;;-145.01;100.00;59511.53;5057858;28;45423;-72
2021/07/07 00:34:08;;;;;;;;;3.50;2.25;;;;;-145.01;100.00;59511.53;5060214;27;45345;-73
2021/07/07 00:36:33;;;;;;;;;4.25;3.50;;;;;-145.01;100.00;59511.53;5061580;28;47088;-73
2021/07/07 00:38:58;;;;;;;;;3.00;3.00;;;;;-145.01;100.00;59511.53;5061612;28;47290;-72
2021/07/07 00:41:24;;;;;;;;;2.50;2.00;;;;;-145.01;100.00;59511.53;5061745;28;45457;-72
2021/07/07 00:43:49;;;;;;;;;2.50;2.00;;;;;-145.01;100.00;59511.53;5059100;28;45558;-72
2021/07/07 00:46:15;;;;;;;;;2.25;2.25;;;;;-145.01;100.00;59511.53;5058825;27;46255;-73
2021/07/07 00:48:40;;;;;;;;;3.00;1.25;;;;;-145.01;100.00;59511.53;5061519;28;45449;-72
2021/07/07 00:51:06;;;;;;;;;5.00;3.75;;;;;-145.01;100.00;59511.53;5061371;28;45658;-73
2021/07/07 00:53:32;;;;;;;;;2.25;2.25;;;;;-145.01;100.00;59511.53;5061591;28;45433;-72
2021/07/07 00:55:59;;;;;;;;;0.50;0.25;;;;;-145.01;100.00;59511.53;5059268;28;45977;-72
2021/07/07 00:58:26;;;;;;;;;4.00;3.00;;;;;-145.01;100.00;59511.53;5058066;28;45521;-72
2021/07/07 01:00:52;;;;;;;;;3.00;2.00;;;;;-145.01;100.00;59511.53;5059987;28;45412;-72
2021/07/07 01:03:18;;;;;;;;;5.00;3.00;;;;;-145.01;100.00;59511.53;5061011;28;45361;-72
2021/07/07 01:05:44;;;;;;;;;2.75;2.00;;;;;-145.01;100.00;59511.53;5060471;28;45521;-72
2021/07/07 01:08:10;;;;;;;;;1.00;1.00;;;;;-145.01;100.00;59511.53;5061214;27;45351;-72
2021/07/07 01:10:37;;;;;;;;;5.25;3.75;;;;;-145.01;100.00;59511.53;5056970;28;45468;-73
2021/07/07 01:13:02;;;;;;;;;2.00;2.00;;;;;-145.01;100.00;59511.53;5056137;28;45293;-72
2021/07/07 01:15:27;;;;;;;;;4.00;2.25;;;;;-145.01;100.00;59511.53;5060433;28;46975;-72
2021/07/07 01:17:53;;;;;;;;;4.75;4.25;;;;;-145.01;100.00;59511.53;5060794;28;45279;-73
2021/07/07 01:20:27;;;;;;;;;3.25;2.75;;;;;-145.01;100.00;59511.53;5060714;28;45445;-72
2021/07/07 01:22:56;;;;;;;;;2.00;2.00;;;;;-145.01;100.00;59511.53;5059036;28;45411;-73
2021/07/07 01:25:21;;;;;;;;;3.75;1.25;;;;;-145.01;100.00;59511.53;5058290;27;46660;-72
2021/07/07 01:27:47;;;;;;;;;2.25;2.25;;;;;-145.01;100.00;59511.53;5059989;28;45367;-72
2021/07/07 01:30:16;;;;;;;;;1.50;1.50;;;;;-145.01;100.00;59511.53;5060576;28;45451;-72
2021/07/07 01:32:42;;;;;;;;;1.50;1.50;;;;;-145.01;100.00;59511.53;5061283;28;45410;-73
2021/07/07 01:35:09;;;;;;;;;1.75;1.75;;;;;-145.01;100.00;59511.53;5060612;28;46887;-72
2021/07/07 01:37:34;;;;;;;;;2.25;2.25;;;;;-145.01;100.00;59511.53;5057157;28;45566;-73
2021/07/07 01:40:00;;;;;;;;;2.75;1.25;;;;;-145.01;100.00;59511.53;5071238;28;45363;-72
2021/07/07 01:42:25;;;;;;;;;4.75;3.00;;;;;-145.01;100.00;59511.53;5069085;27;45412;-72
2021/07/07 01:44:51;;;;;;;;;3.50;2.25;;;;;-145.01;100.00;59511.53;5068509;28;46030;-73
2021/07/07 01:47:16;;;;;;;;;1.25;0.00;;;;;-145.01;100.00;59511.53;5071350;27;45346;-72
2021/07/07 01:49:41;;;;;;;;;5.75;4.00;;;;;-145.01;100.00;59511.53;5056991;28;45375;-73
2021/07/07 01:52:07;;;;;;;;;2.00;2.00;;;;;-145.01;100.00;59511.53;5059306;28;45338;-72
2021/07/07 01:54:32;;;;;;;;;1.50;1.50;;;;;-145.01;100.00;59511.53;5060818;27;45374;-73
2021/07/07 01:56:57;;;;;;;;;4.00;2.50;;;;;-145.01;100.00;59511.53;5060469;28;45456;-72
2021/07/07 01:59:23;;;;;;;;;2.00;2.00;;;;;-145.01;100.00;59511.53;5060451;28;45401;-73
2021/07/07 02:01:49;;;;;;;;;2.00;2.00;;;;;-145.01;100.00;59511.53;5057582;28;45575;-72
2021/07/07 02:04:14;;;;;;;;;2.00;2.00;;;;;-145.01;100.00;59511.53;5057463;27;46090;-73
2021/07/07 02:06:40;;;;;;;;;2.00;2.00;;;;;-145.01;100.00;59511.53;5060427;27;45500;-73
2021/07/07 02:09:05;;;;;;;;;4.00;1.50;;;;;-145.01;100.00;59511.53;5060386;28;45859;-73
2021/07/07 02:11:31;;;;;;;;;3.50;1.75;;;;;-145.01;100.00;59511.53;5060411;28;45248;-73
2021/07/07 02:13:57;;;;;;;;;4.50;2.50;;;;;-145.01;100.00;59511.53;5058343;28;45982;-73
2021/07/07 02:16:22;;;;;;;;;3.00;3.00;;;;;-145.01;100.00;59511.53;5057385;27;45464;-73
2021/07/07 02:18:47;;;;;;;;;3.50;2.75;;;;;-145.01;100.00;59511.53;5059656;27;45335;-73
2021/07/07 02:21:13;;;;;;;;;3.25;3.25;;;;;-145.01;100.00;59511.53;5060361;28;47587;-73
2021/07/07 02:23:38;;;;;;;;;2.25;2.25;;;;;-145.01;100.00;59511.53;5059982;28;45276;-72
2021/07/07 02:26:04;;;;;;;;;2.50;2.25;;;;;-145.01;100.00;59511.53;5059713;27;45434;-72
2021/07/07 02:28:29;;;;;;;;;3.75;3.75;;;;;-145.01;100.00;59511.53;5056447;28;45493;-72
2021/07/07 02:30:56;;;;;;;;;3.00;2.25;;;;;-145.01;100.00;59511.53;5059367;28;45475;-72
2021/07/07 02:33:23;;;;;;;;;4.00;2.75;;;;;-145.01;100.00;59511.53;5060095;28;46132;-72
2021/07/07 02:35:49;;;;;;;;;3.50;2.75;;;;;-145.01;100.00;59511.53;5059848;28;45319;-72
2021/07/07 02:38:18;;;;;;;;;1.75;1.75;;;;;-145.01;100.00;59511.53;5060149;28;45345;-72
2021/07/07 02:40:44;;;;;;;;;5.00;4.75;;;;;-145.01;100.00;59511.53;5056837;28;45286;-72
2021/07/07 02:43:11;;;;;;;;;5.75;3.00;;;;;-145.01;100.00;59511.53;5057252;27;46037;-72
2021/07/07 02:45:39;;;;;;;;;3.00;3.00;;;;;-145.01;100.00;59511.53;5059825;28;45380;-73
2021/07/07 02:48:06;;;;;;;;;3.25;3.00;;;;;-145.01;100.00;59511.53;5060343;28;45611;-72
2021/07/07 02:50:33;;;;;;;;;3.25;2.00;;;;;-145.01;100.00;59511.53;5063157;28;45433;-72
2021/07/07 02:52:58;;;;;;;;;4.00;3.25;;;;;-145.01;100.00;59511.53;5061467;28;47026;-72
2021/07/07 02:55:24;;;;;;;;;2.00;2.00;;;;;-145.01;100.00;59511.53;5060152;28;45337;-72
2021/07/07 02:57:56;;;;;;;;;3.00;3.00;;;;;-145.01;100.00;59511.53;5061993;28;45395;-72
2021/07/07 03:00:25;;;;;;;;;4.00;3.00;;;;;-145.01;100.00;59511.53;5063152;28;45490;-72
2021/07/07 03:02:50;;;;;;;;;3.50;2.25;;;;;-145.01;100.00;59511.53;5062953;28;46230;-72
2021/07/07 03:05:16;;;;;;;;;3.50;3.50;;;;;-145.01;100.00;59511.53;5063218;27;45440;-71
2021/07/07 03:07:41;;;;;;;;;3.75;2.75;;;;;-145.01;100.00;59511.53;5059447;28;45647;-71
2021/07/07 03:10:08;;;;;;;;;2.00;2.00;;;;;-145.01;100.00;59511.53;5061792;27;45400;-71
2021/07/07 03:12:34;;;;;;;;;4.00;3.00;;;;;-145.01;100.00;59511.53;5071573;27;45379;-72
2021/07/07 03:14:59;;;;;;;;;1.25;1.00;;;;;-145.01;100.00;59511.53;5070938;28;47000;-72
2021/07/07 03:17:24;;;;;;;;;3.00;1.50;;;;;-145.01;100.00;59511.53;5071518;27;45578;-73
2021/07/07 03:19:50;;;;;;;;;3.50;3.50;;;;;-145.01;100.00;59511.53;5074300;27;45417;-73
2021/07/07 03:22:17;;;;;;;;;4.25;4.25;;;;;-145.01;100.00;59511.53;5074001;27;46283;-72
2021/07/07 03:24:42;;;;;;;;;3.25;2.75;;;;;-145.01;100.00;59511.53;5072521;28;45401;-72
2021/07/07 03:27:07;;;;;;;;;5.50;4.25;;;;;-145.01;100.00;59511.53;5070376;27;45415;-71
2021/07/07 03:29:33;;;;;;;;;2.00;2.00;;;;;-145.01;100.00;59511.53;5070797;27;45347;-73
2021/07/07 03:31:58;;;;;;;;;4.00;2.75;;;;;-145.01;100.00;59511.53;5072683;27;45276;-72
2021/07/07 03:34:26;;;;;;;;;3.00;3.00;;;;;-145.01;100.00;59511.53;5074044;28;45523;-73
2021/07/07 03:36:52;;;;;;;;;8.25;4.00;;;;;-145.01;100.00;59511.53;5073326;27;45476;-72
2021/07/07 03:39:17;;;;;;;;;5.25;2.50;;;;;-145.01;100.00;59511.53;5070503;27;45456;-70
2021/07/07 03:41:42;;;;;;;;;3.25;3.25;;;;;-145.01;100.00;59511.53;5069830;27;46036;-73
2021/07/07 03:44:08;;;;;;;;;6.00;4.50;;;;;-145.01;100.00;59511.53;5073676;27;45491;-73
2021/07/07 03:46:33;;;;;;;;;2.25;2.00;;;;;-145.01;100.00;59511.53;5057904;27;45310;-72
2021/07/07 03:48:58;;;;;;;;;5.50;4.50;;;;;-145.01;100.00;59511.53;5061443;27;45353;-71
2021/07/07 03:51:24;;;;;;;;;4.50;4.25;;;;;-145.01;100.00;59511.53;5062070;28;46188;-71
2021/07/07 03:53:49;;;;;;;;;3.25;3.25;;;;;-145.01;100.00;59511.53;5062024;28;45524;-72
2021/07/07 03:56:14;;;;;;;;;5.00;4.00;;;;;-145.01;100.00;59511.53;5061697;28;45275;-72
2021/07/07 03:58:40;;;;;;;;;4.50;3.00;;;;;-145.01;100.00;59511.53;5057782;28;45429;-71
2021/07/07 04:01:05;;;;;;;;;1.50;1.50;;;;;-145.01;100.00;59511.53;5060683;27;46055;-71
2021/07/07 04:03:30;;;;;;;;;4.75;4.75;;;;;-145.01;100.00;59511.53;5062192;27;45437;-72
2021/07/07 04:05:56;;;;;;;;;2.75;2.00;;;;;-145.01;100.00;59511.53;5071439;27;45531;-71
2021/07/07 04:08:21;;;;;;;;;4.00;3.50;;;;;-145.01;100.00;59511.53;5061480;28;52962;-73
2021/07/07 04:10:46;;;;;;;;;5.00;4.00;;;;;-145.01;100.00;59511.53;5057799;28;46982;-72
2021/07/07 04:13:12;;;;;;;;;5.75;5.75;;;;;-145.01;100.00;59511.53;5059149;27;45233;-72
2021/07/07 04:15:37;;;;;;;;;5.00;3.00;;;;;-145.01;100.00;59511.53;5061848;28;45504;-72
2021/07/07 04:18:04;;;;;;;;;5.00;4.00;;;;;-145.01;100.00;59511.53;5061823;27;45490;-72
2021/07/07 04:20:29;;;;;;;;;5.25;2.50;;;;;-145.01;100.00;59511.53;5061229;28;47018;-71
2021/07/07 04:22:54;;;;;;;;;3.00;2.00;;;;;-145.01;100.00;59511.53;5059412;27;45403;-72
2021/07/07 04:25:20;;;;;;;;;5.00;4.00;;;;;-145.01;100.00;59511.53;5058685;27;45713;-72
2021/07/07 04:27:47;;;;;;;;;4.50;3.00;;;;;-145.01;100.00;59511.53;5060362;27;45297;-76
2021/07/07 04:30:16;;;;;;;;;3.00;3.00;;;;;-145.01;100.00;59511.53;5061406;27;46299;-72
2021/07/07 04:32:42;;;;;;;;;4.50;3.00;;;;;-145.01;100.00;59511.53;5061179;28;45291;-72
2021/07/07 04:35:09;;;;;;;;;3.50;3.00;;;;;-145.01;100.00;59511.53;5061281;28;45315;-72
2021/07/07 04:37:35;;;;;;;;;5.50;4.25;;;;;-145.01;100.00;59511.53;5057877;28;45416;-72
2021/07/07 04:40:00;;;;;;;;;3.00;3.00;;;;;-145.01;100.00;59511.53;5071532;27;45410;-72
2021/07/07 04:42:26;;;;;;;;;3.00;3.00;;;;;-145.01;100.00;59511.53;5068946;27;45462;-72
2021/07/07 04:44:51;;;;;;;;;3.50;3.25;;;;;-145.01;100.00;59511.53;5069413;27;45343;-73
2021/07/07 04:47:16;;;;;;;;;1.75;1.75;;;;;-145.01;100.00;59511.53;5069686;27;45366;-73
2021/07/07 04:49:42;;;;;;;;;7.00;6.00;;;;;-145.01;100.00;59511.53;5073169;27;46559;-72
2021/07/07 04:52:07;;;;;;;;;5.00;4.25;;;;;-145.01;100.00;59511.53;5067813;28;45379;-72
2021/07/07 04:54:32;;;;;;;;;3.00;3.00;;;;;-145.01;100.00;59511.53;5070939;27;45454;-72
2021/07/07 04:56:59;;;;;;;;;4.50;3.00;;;;;-145.01;100.00;59511.53;5072596;27;45471;-72
2021/07/07 04:59:24;;;;;;;;;4.50;4.50;;;;;-145.01;100.00;59511.53;5072477;27;46975;-72
2021/07/07 05:01:50;;;;;;;;;4.25;4.25;;;;;-145.01;100.00;59511.53;5072506;27;45305;-74
2021/07/07 05:04:16;;;;;;;;;7.00;5.00;;;;;-145.01;100.00;59511.53;5073801;27;45488;-72
2021/07/07 05:06:41;;;;;;;;;3.75;3.75;;;;;-145.01;100.00;59511.53;5059521;27;45452;-72
2021/07/07 05:09:06;;;;;;;;;2.50;2.50;;;;;-145.01;100.00;59511.53;5066484;27;45416;-73
2021/07/07 05:11:32;;;;;;;;;3.00;3.00;;;;;-145.01;100.00;59511.53;5067452;27;45279;-73
2021/07/07 05:13:57;;;;;;;;;6.75;4.25;;;;;-145.01;100.00;59511.53;5070827;27;45257;-73
2021/07/07 05:16:23;;;;;;;;;6.25;4.50;;;;;-145.01;100.00;59511.53;5071729;28;45258;-73
2021/07/07 05:18:48;;;;;;;;;6.50;4.25;;;;;-145.01;100.00;59511.53;5070948;27;45283;-72
2021/07/07 05:21:14;;;;;;;;;4.75;4.50;;;;;-145.01;100.00;59511.53;5068274;28;45294;-72
2021/07/07 05:23:40;;;;;;;;;1.25;1.25;;;;;-145.01;100.00;59511.53;5069375;27;45677;-73
2021/07/07 05:26:05;;;;;;;;;4.50;4.25;;;;;-145.01;100.00;59511.53;5069721;27;45505;-73
2021/07/07 05:28:31;;;;;;;;;8.50;6.00;;;;;-145.01;100.00;59511.53;5072621;28;47067;-73
2021/07/07 05:31:03;;;;;;;;;7.75;4.50;;;;;-145.01;100.00;59511.53;5070190;27;45354;-72
2021/07/07 05:33:34;;;;;;;;;7.25;5.50;;;;;-145.01;100.00;59511.53;5068376;27;45524;-73
2021/07/07 05:35:59;;;;;;;;;9.00;5.50;;;;;-145.01;100.00;59511.53;5067478;27;45403;-74
2021/07/07 05:38:24;;;;;;;;;5.00;3.75;;;;;-145.01;100.00;59511.53;5068290;27;46486;-73
2021/07/07 05:40:50;;;;;;;;;5.00;5.00;;;;;-145.01;100.00;59511.53;5071628;27;45427;-73
2021/07/07 05:43:15;;;;;;;;;6.50;6.00;;;;;-145.01;100.00;59511.53;5057484;28;45260;-73
2021/07/07 05:45:40;;;;;;;;;5.50;4.50;;;;;-145.01;100.00;59511.53;5065894;28;45394;-73
2021/07/07 05:48:07;;;;;;;;;6.50;4.50;;;;;-145.01;100.00;59511.53;5059707;27;46982;-74
2021/07/07 05:50:32;;;;;;;;;5.75;4.75;;;;;-145.01;100.00;59511.53;5058828;28;45460;-73
2021/07/07 05:52:58;;;;;;;;;4.50;3.00;;;;;-145.01;100.00;59511.53;5059053;28;45363;-72
2021/07/07 05:55:24;;;;;;;;;4.75;4.75;;;;;-145.01;100.00;59511.53;5057095;27;45365;-72
2021/07/07 05:57:50;;;;;;;;;4.00;4.00;;;;;-145.01;100.00;59511.53;5059251;28;46143;-73
2021/07/07 06:00:18;;;;;;;;;7.50;6.00;;;;;-145.01;100.00;59511.53;5059838;28;45535;-73
2021/07/07 06:02:47;;;;;;;;;6.00;4.25;;;;;-145.01;100.00;59511.53;5060206;28;45315;-73
2021/07/07 06:05:13;;;;;;;;;6.25;5.00;;;;;-145.01;100.00;59511.53;5059473;28;45448;-73
2021/07/07 06:07:39;;;;;;;;;4.50;4.25;;;;;-145.01;100.00;59511.53;5056865;28;46056;-73
2021/07/07 06:10:06;;;;;;;;;6.00;5.25;;;;;-145.01;100.00;59511.53;5059044;28;45677;-73
2021/07/07 06:12:32;;;;;;;;;7.00;4.25;;;;;-145.01;100.00;59511.53;5059502;27;45523;-75
2021/07/07 06:14:57;;;;;;;;;5.00;5.00;;;;;-145.01;100.00;59511.53;5059663;27;45295;-72
2021/07/07 06:17:22;;;;;;;;;7.75;6.25;;;;;-145.01;100.00;59511.53;5059318;28;46778;-74
2021/07/07 06:19:48;;;;;;;;;10.75;7.25;;;;;-145.01;100.00;59511.53;5056587;27;45544;-73
2021/07/07 06:22:13;;;;;;;;;9.75;7.25;;;;;-145.01;100.00;59511.53;5058930;28;45675;-74
2021/07/07 06:24:39;;;;;;;;;7.00;5.00;;;;;-145.01;100.00;59511.53;5063387;27;45335;-74
2021/07/07 06:27:04;;;;;;;;;10.25;8.25;;;;;-145.01;100.00;59511.53;5062805;27;46135;-73
2021/07/07 06:29:30;;;;;;;;;12.00;7.50;;;;;-145.01;100.00;59511.53;5062963;28;45480;-73
2021/07/07 06:31:55;;;;;;;;;5.75;5.75;;;;;-145.01;100.00;59511.53;5060868;28;45469;-72
2021/07/07 06:34:20;;;;;;;;;6.25;6.25;;;;;-145.01;100.00;59511.53;5060229;28;45366;-73
2021/07/07 06:36:46;;;;;;;;;5.25;5.25;;;;;-145.01;100.00;59511.53;5061916;27;46057;-74
2021/07/07 06:39:11;;;;;;;;;9.50;7.50;;;;;-145.01;100.00;59511.53;5062413;28;45208;-74
2021/07/07 06:41:36;;;;;;;;;6.00;6.00;;;;;-145.01;100.00;59511.53;5062727;28;45379;-73
2021/07/07 06:44:02;;;;;;;;;5.75;4.75;;;;;-145.01;100.00;59511.53;5061632;28;45330;-74
2021/07/07 06:46:30;;;;;;;;;7.75;6.00;;;;;-145.01;100.00;59511.53;5058562;27;45283;-74
2021/07/07 06:48:55;;;;;;;;;4.50;4.50;;;;;-145.01;100.00;59511.53;5061191;28;45517;-74
2021/07/07 06:51:20;;;;;;;;;5.25;4.50;;;;;-145.01;100.00;59511.53;5062503;27;45716;-73
2021/07/07 06:53:46;;;;;;;;;8.75;6.75;;;;;-145.01;100.00;59511.53;5062028;28;45334;-72
2021/07/07 06:56:11;;;;;;;;;6.75;6.00;;;;;-145.01;100.00;59511.53;5061798;28;46072;-74
2021/07/07 06:58:36;;;;;;;;;5.50;5.00;;;;;-145.01;100.00;59511.53;5057947;27;45549;-73
2021/07/07 07:01:02;;;;;;;;;7.00;4.25;;;;;-145.01;100.00;59511.53;5061316;28;45859;-74
2021/07/07 07:03:27;;;;;;;;;4.00;4.00;;;;;-145.01;100.00;59511.53;5061601;28;45359;-72
2021/07/07 07:05:53;;;;;;;;;7.00;6.00;;;;;-145.01;100.00;59511.53;5066428;27;47037;-73
2021/07/07 07:08:19;;;;;;;;;8.25;6.25;;;;;-145.01;100.00;59511.53;5070380;27;45585;-74
2021/07/07 07:10:45;;;;;;;;;6.25;6.25;;;;;-145.01;100.00;59511.53;5073805;27;45534;-73
2021/07/07 07:13:11;;;;;;;;;8.25;6.25;;;;;-145.01;100.00;59511.53;5073092;27;45362;-73
2021/07/07 07:15:37;;;;;;;;;6.25;6.00;;;;;-145.01;100.00;59511.53;5062205;28;45327;-74
2021/07/07 07:18:02;;;;;;;;;13.00;7.00;;;;;-145.01;100.00;59511.53;5061919;27;45397;-73
2021/07/07 07:20:29;;;;;;;;;8.50;8.50;;;;;-145.01;100.00;59511.53;5061892;28;45324;-73
2021/07/07 07:23:00;;;;;;;;;4.00;1.00;;;;;-145.01;100.00;59511.53;5059667;28;45380;-73
2021/07/07 07:25:26;;;;;;;;;7.50;5.25;;;;;-145.01;100.00;59511.53;5058878;27;45277;-72
2021/07/07 07:27:53;;;;;;;;;5.00;4.00;;;;;-145.01;100.00;59511.53;5060881;28;45346;-72
2021/07/07 07:30:19;;;;;;;;;9.00;6.00;;;;;-145.01;100.00;59511.53;5061327;28;45422;-77
2021/07/07 07:32:46;;;;;;;;;7.00;5.75;;;;;-145.01;100.00;59511.53;5059014;27;45521;-72
2021/07/07 07:35:16;;;;;;;;;2.50;2.50;;;;;-145.01;100.00;59511.53;5063060;28;46408;-72
2021/07/07 07:37:48;;;;;;;;;9.00;8.75;;;;;-145.01;100.00;59511.53;5060574;27;45385;-71
2021/07/07 07:40:13;;;;;;;;;8.00;7.50;;;;;-145.01;100.00;59511.53;5060704;27;45374;-73
2021/07/07 07:42:45;;;;;;;;;8.75;5.75;;;;;-145.01;100.00;59511.53;5062561;28;45353;-72
2021/07/07 07:45:12;;;;;;;;;8.00;7.00;;;;;-145.01;100.00;59511.53;5061819;28;45446;-73
2021/07/07 07:47:46;;;;;;;;;4.75;3.50;;;;;-145.01;100.00;59511.53;5060476;27;45321;-72
2021/07/07 07:50:13;;;;;;;;;12.25;8.25;;;;;-145.01;100.00;59511.53;5062214;28;45389;-71
2021/07/07 07:52:41;;;;;;;;;6.00;6.00;;;;;-145.01;100.00;59511.53;5064587;28;45251;-74
2021/07/07 07:55:07;;;;;;;;;6.00;6.00;;;;;-145.01;100.00;59511.53;5071421;27;45306;-73
2021/07/07 07:57:36;;;;;;;;;10.75;8.00;;;;;-145.01;100.00;59511.53;5060603;27;45533;-73
2021/07/07 08:00:28;;;;;;;;;8.25;6.75;;;;;-145.01;100.00;59511.53;5060493;28;45322;-74
2021/07/07 08:02:55;;;;;;;;;10.00;7.00;;;;;-145.01;100.00;59511.53;5057459;27;45421;-74
2021/07/07 08:05:21;;;;;;;;;7.00;5.50;;;;;-145.01;100.00;59511.53;5060190;27;46348;-73
2021/07/07 08:07:47;;;;;;;;;4.00;3.50;;;;;-145.01;100.00;59511.53;5057585;28;45543;-73
2021/07/07 08:10:19;;;;;;;;;5.00;5.00;;;;;-145.01;100.00;59511.53;5058599;27;45344;-74
2021/07/07 08:12:45;;;;;;;;;5.75;5.75;;;;;-145.01;100.00;59511.53;5071296;27;45288;-72
2021/07/07 08:15:11;;;;;;;;;6.00;5.75;;;;;-145.01;100.00;59511.53;5068345;27;46328;-74
2021/07/07 08:17:37;;;;;;;;;6.00;4.00;;;;;-145.01;100.00;59511.53;5068318;27;45527;-74
2021/07/07 08:20:05;;;;;;;;;4.33;4.33;;;;;-145.01;100.00;59511.53;5059216;28;45328;-72
2021/07/07 08:22:30;;;;;;;;;5.75;5.75;;;;;-145.01;100.00;59511.53;5056767;27;45367;-74
2021/07/07 08:24:55;;;;;;;;;10.25;7.75;;;;;-145.01;100.00;59511.53;5059192;27;45738;-73
2021/07/07 08:27:21;;;;;;;;;6.25;5.25;;;;;-145.01;100.00;59511.53;5060135;28;45356;-73
2021/07/07 08:29:46;;;;;;;;;6.00;3.25;;;;;-145.01;100.00;59511.53;5059667;28;45787;-72
2021/07/07 08:32:11;;;;;;;;;6.75;6.75;;;;;-145.01;100.00;59511.53;5060468;28;45420;-73
2021/07/07 08:34:37;;;;;;;;;4.00;3.00;;;;;-145.01;100.00;59511.53;5056128;28;45394;-73
2021/07/07 08:37:03;;;;;;;;;4.00;4.00;;;;;-145.01;100.00;59511.53;5059709;28;45344;-73
2021/07/07 08:39:30;;;;;;;;;9.00;6.00;;;;;-145.01;100.00;59511.53;5060107;28;45668;-74
2021/07/07 08:41:56;;;;;;;;;3.75;3.75;;;;;-145.01;100.00;59511.53;5059822;27;45435;-73
2021/07/07 08:44:22;;;;;;;;;6.75;5.00;;;;;-145.01;100.00;59511.53;5059776;28;45460;-72
2021/07/07 08:46:48;;;;;;;;;9.25;7.75;;;;;-145.01;100.00;59511.53;5055643;28;45368;-72
2021/07/07 08:49:14;;;;;;;;;9.75;8.50;;;;;-145.01;100.00;59511.53;5057739;27;45503;-73
2021/07/07 08:51:41;;;;;;;;;7.75;5.75;;;;;-145.01;100.00;59511.53;5059084;28;45378;-73
2021/07/07 08:54:11;;;;;;;;;7.50;5.75;;;;;-145.01;100.00;59511.53;5060100;28;46950;-74
2021/07/07 08:56:40;;;;;;;;;10.25;7.50;;;;;-145.01;100.00;59511.53;5060175;27;45505;-73
2021/07/07 08:59:10;;;;;;;;;3.50;3.50;;;;;-145.01;100.00;59511.53;5058737;28;45515;-72
2021/07/07 09:02:03;;;;;;;;;6.25;4.75;;;;;-145.01;100.00;59511.53;5055518;27;45430;-73
2021/07/07 09:04:37;;;;;;;;;8.00;6.00;;;;;-145.01;100.00;59511.53;5071573;27;45562;-73
2021/07/07 09:07:07;;;;;;;;;5.00;5.00;;;;;-145.01;100.00;59511.53;5070676;27;45239;-73
2021/07/07 09:09:37;;;;;;;;;7.00;7.00;;;;;-145.01;100.00;59511.53;5059849;27;45363;-73
2021/07/07 09:12:34;;;;;;;;;4.75;4.75;;;;;-145.01;100.00;59511.53;5060072;27;45498;-73
2021/07/07 09:15:10;;;;;;;;;6.00;6.00;;;;;-145.01;100.00;59511.53;5047066;28;46575;-73
2021/07/07 09:17:48;;;;;;;;;3.75;3.75;;;;;-145.01;100.00;59511.53;5060047;27;45492;-73
2021/07/07 09:20:15;;;;;;;;;4.75;3.75;;;;;-145.01;100.00;59511.53;5038877;28;45485;-72
2021/07/07 09:22:41;;;;;;;;;4.75;4.75;;;;;-145.01;100.00;59511.53;5057074;28;45346;-72
2021/07/07 09:25:07;;;;;;;;;5.00;5.00;;;;;-145.01;100.00;59511.53;5070922;28;45351;-72
2021/07/07 09:27:35;;;;;;;;;6.00;4.25;;;;;-145.01;100.00;59511.53;5059385;27;45466;-73
2021/07/07 09:30:09;;;;;;;;;6.75;5.00;;;;;-145.01;100.00;59511.53;5059831;28;45418;-73
2021/07/07 09:32:49;;;;;;;;;6.75;5.50;;;;;-145.01;100.00;59511.53;5059722;28;45259;-75
2021/07/07 09:35:19;;;;;;;;;5.67;5.67;;;;;-145.01;100.00;59511.53;5059358;27;46479;-74
2021/07/07 09:37:56;;;;;;;;;5.00;5.00;;;;;-145.01;100.00;59511.53;5055728;28;45315;-73
2021/07/07 09:40:23;;;;;;;;;9.00;6.00;;;;;-145.01;100.00;59511.53;5056716;27;45453;-73
2021/07/07 09:42:49;;;;;;;;;13.00;10.25;;;;;-145.01;100.00;59511.53;5060505;27;45441;-72
2021/07/07 09:45:17;;;;;;;;;4.25;4.25;;;;;-145.01;100.00;59511.53;5059117;28;46973;-75
2021/07/07 09:47:43;;;;;;;;;4.25;4.25;;;;;-145.01;100.00;59511.53;5059079;28;45430;-73
2021/07/07 09:50:11;;;;;;;;;4.75;3.00;;;;;-145.01;100.00;59511.53;5059247;28;45357;-73
2021/07/07 09:52:36;;;;;;;;;7.25;6.25;;;;;-145.01;100.00;59511.53;5056288;27;45472;-73
2021/07/07 09:55:06;;;;;;;;;7.00;6.75;;;;;-145.01;100.00;59511.53;5069714;27;47155;-73
2021/07/07 09:57:31;;;;;;;;;8.25;6.00;;;;;-145.01;100.00;59511.53;5067092;27;45409;-74
2021/07/07 09:59:56;;;;;;;;;5.25;4.00;;;;;-145.01;100.00;59511.53;5067533;28;45974;-73
2021/07/07 10:02:22;;;;;;;;;7.00;6.50;;;;;-145.01;100.00;59511.53;5067599;27;45308;-73
2021/07/07 10:04:51;;;;;;;;;4.67;4.00;;;;;-145.01;100.00;59511.53;5070715;27;47103;-73
2021/07/07 10:07:16;;;;;;;;;6.33;5.67;;;;;-145.01;100.00;59511.53;5070455;28;45393;-72
2021/07/07 10:09:46;;;;;;;;;7.00;5.00;;;;;-145.01;100.00;59511.53;5068312;28;45409;-74
2021/07/07 10:12:12;;;;;;;;;6.75;5.25;;;;;-145.01;100.00;59511.53;5067160;27;45598;-73
2021/07/07 10:14:37;;;;;;;;;9.00;7.00;;;;;-145.01;100.00;59511.53;5066878;27;45998;-74
2021/07/07 10:17:03;;;;;;;;;8.75;8.75;;;;;-145.01;100.00;59511.53;5058247;28;45469;-74
2021/07/07 10:19:29;;;;;;;;;5.33;4.00;;;;;-145.01;100.00;59511.53;5056008;27;45236;-73
2021/07/07 10:21:56;;;;;;;;;6.00;5.25;;;;;-145.01;100.00;59511.53;5058362;28;45414;-76
2021/07/07 10:24:32;;;;;;;;;7.50;7.00;;;;;-145.01;100.00;59511.53;5058865;28;45400;-74
2021/07/07 10:27:05;;;;;;;;;12.25;7.50;;;;;-145.01;100.00;59511.53;5058648;28;45449;-74
2021/07/07 10:29:30;;;;;;;;;4.75;4.25;;;;;-145.01;100.00;59511.53;5058834;28;45393;-74
2021/07/07 10:31:59;;;;;;;;;6.25;5.50;;;;;-145.01;100.00;59511.53;5056672;28;45511;-74
2021/07/07 10:34:26;;;;;;;;;8.00;5.50;;;;;-145.01;100.00;59511.53;5055819;27;46166;-74
2021/07/07 10:36:57;;;;;;;;;22.00;20.25;;;;;-145.01;100.00;59511.53;5057931;27;45469;-73
2021/07/07 10:39:22;;;;;;;;;3.75;3.75;;;;;-145.01;100.00;59511.53;5059203;28;45461;-72
2021/07/07 10:41:51;;;;;;;;;5.50;5.50;;;;;-145.01;100.00;59511.53;5058647;28;45299;-74
2021/07/07 10:44:22;;;;;;;;;8.00;8.00;;;;;-145.01;100.00;59511.53;5058684;28;45572;-73
2021/07/07 10:47:12;;;;;;;;;5.33;5.33;;;;;-145.01;100.00;59511.53;5055688;28;45450;-74
2021/07/07 10:49:51;;;;;;;;;5.00;4.25;;;;;-145.01;100.00;59511.53;5055725;28;45345;-73
2021/07/07 10:52:32;;;;;;;;;6.00;6.00;;;;;-145.01;100.00;59511.53;5054116;27;45377;-74
2021/07/07 10:54:59;;;;;;;;;7.50;7.50;;;;;-145.01;100.00;59511.53;5058650;28;45536;-74
2021/07/07 10:57:35;;;;;;;;;9.00;7.75;;;;;-145.01;100.00;59511.53;5058454;28;45491;-73
2021/07/07 11:00:05;;;;;;;;;5.75;4.75;;;;;-145.01;100.00;59511.53;5058594;28;45415;-73
2021/07/07 11:02:30;;;;;;;;;7.00;7.00;;;;;-145.01;100.00;59511.53;5058764;28;45591;-73
2021/07/07 11:05:01;;;;;;;;;9.00;6.33;;;;;-145.01;100.00;59511.53;5056036;28;46872;-72
2021/07/07 11:07:32;;;;;;;;;8.25;8.25;;;;;-145.01;100.00;59511.53;5055805;27;45370;-73